KSEA Airport Information

Runway Information
Runway 16C Length 9426 ft width 150 ft
Elevation 430 ft Threshold 0 ft Heading 180
Runway 34C Length 9426 ft Width 150 ft
Elevation 363 ft Threshold 0 ft Heading 0
Runway 16L Length 11900 ft width 150 ft
Elevation 432 ft Threshold 0 ft Heading 180
Runway 34R Length 11900 ft Width 150 ft
Elevation 347 ft Threshold 0 ft Heading 360
Runway 16R Length 9426 ft width 150 ft
Elevation 430 ft Threshold 0 ft Heading 180
Runway 34L Length 9426 ft Width 150 ft
Elevation 363 ft Threshold 0 ft Heading 360
Airport Frequencies
Type A/D Name APP/DEP Frequency 119.2 MHZ
Type ATIS Name ATIS Frequency 118 MHZ
Type CLD Name CLNC DEL Frequency 128 MHZ
Type GND Name GND Frequency 121.7 MHZ
Type TWR Name TWR Frequency 119.9 MHZ
Type UNIC Name UNICOM Frequency 122.95 MHZ
Airport Navaids
Type NDB Name Dondo Frequency 224 KHZ
Type VORTAC Name Seattle Frequency 116800 KHZ
Type NDB Name Parkk Frequency 281 KHZ
Airport Weather Information & NOTAM
ADDS - METARS form results

(1038 UTC 08 December 2019)
Data provider http://aviationweather.gov/metar/data/
 
METAR text: KSEA 081030Z 36007KT 3SM BR BKN004 OVC008 09/07 A2992 RMK AO2 T00890072
Conditions at: KSEA (SEATTLE/METRO , WA, US) observed 1030 UTC 08 December 2019
Temperature: 8.9°C (48°F)
Dewpoint: 7.2°C (45°F) [RH = 89%]
Pressure (altimeter): 29.92 inches Hg (1013.3 mb)
Winds: from the N (360 degrees) at 8 MPH (7 knots; 3.6 m/s)
Visibility: 3 miles ( 5 km)
Ceiling: 400 feet AGL
Clouds: broken clouds at 400 feet AGL
overcast cloud deck at 800 feet AGL
Weather: BR  (mist)

METAR text: KSEA 081018Z 00000KT 2SM BR SCT002 OVC008 09/08 A2991 RMK AO2 T00890078
Conditions at: KSEA (SEATTLE/METRO , WA, US) observed 1018 UTC 08 December 2019
Temperature: 8.9°C (48°F)
Dewpoint: 7.8°C (46°F) [RH = 93%]
Pressure (altimeter): 29.91 inches Hg (1013.0 mb)
Winds: calm
Visibility: 2.00 miles (3.22 km)
Ceiling: 800 feet AGL
Clouds: scattered clouds at 200 feet AGL
overcast cloud deck at 800 feet AGL
Weather: BR  (mist)

METAR text: KSEA 080953Z 00000KT 1 1/2SM R16L/3500VP6000FT BR SCT002 OVC006 09/08 A2989 RMK AO2 SLP128 T00890078
Conditions at: KSEA (SEATTLE/METRO , WA, US) observed 0953 UTC 08 December 2019
Temperature: 8.9°C (48°F)
Dewpoint: 7.8°C (46°F) [RH = 93%]
Pressure (altimeter): 29.89 inches Hg (1012.3 mb)
[Sea-level pressure: 1012.8 mb]
Winds: calm
Visibility: 1.50 miles (2.41 km)
Ceiling: 600 feet AGL
Clouds: scattered clouds at 200 feet AGL
overcast cloud deck at 600 feet AGL
Weather: BR  (mist)

METAR text: KSEA 080941Z 27003KT 2SM R16L/5000VP6000FT BR OVC005 09/08 A2988 RMK AO2 T00890078
Conditions at: KSEA (SEATTLE/METRO , WA, US) observed 0941 UTC 08 December 2019
Temperature: 8.9°C (48°F)
Dewpoint: 7.8°C (46°F) [RH = 93%]
Pressure (altimeter): 29.88 inches Hg (1011.9 mb)
Winds: from the W (270 degrees) at 3 MPH (3 knots; 1.5 m/s)
Visibility: 2.00 miles (3.22 km)
Ceiling: 500 feet AGL
Clouds: overcast cloud deck at 500 feet AGL
Weather: BR  (mist)

Forecast for: KSEA (SEATTLE/METRO , WA, US)
Text: KSEA 080926Z 0809/0912 VRB03KT 5SM BR SCT002 BKN004 OVC008
Forecast period: 0900 to 1700 UTC 08 December 2019
Forecast type: FROM: standard forecast or significant change
Winds: variable direction winds at 3 MPH (3 knots; 1.5 m/s)
Visibility: 5 miles (8 km)
Ceiling: 400 feet AGL
Clouds: scattered clouds at 200 feet AGL
broken clouds at 400 feet AGL
overcast cloud deck at 800 feet AGL
Weather: BR  (mist)
Text: FM081700 VRB03KT P6SM BKN010 BKN025
Forecast period: 1700 to 2100 UTC 08 December 2019
Forecast type: FROM: standard forecast or significant change
Winds: variable direction winds at 3 MPH (3 knots; 1.5 m/s)
Visibility: 6 or more miles 10+ km)
Ceiling: 1000 feet AGL
Clouds: broken clouds at 1000 feet AGL
broken clouds at 2500 feet AGL
Weather: no significant weather forecast for this period
Text: FM082100 35005KT P6SM SCT015 BKN030
Forecast period: 2100 UTC 08 December 2019 to 0000 UTC 09 December 2019
Forecast type: FROM: standard forecast or significant change
Winds: from the N (350 degrees) at 6 MPH (5 knots; 2.6 m/s)
Visibility: 6 or more miles 10+ km)
Ceiling: 3000 feet AGL
Clouds: scattered clouds at 1500 feet AGL
broken clouds at 3000 feet AGL
Weather: no significant weather forecast for this period
Text: FM090000 VRB03KT P6SM SCT030 BKN050
Forecast period: 0000 to 0600 UTC 09 December 2019
Forecast type: FROM: standard forecast or significant change
Winds: variable direction winds at 3 MPH (3 knots; 1.5 m/s)
Visibility: 6 or more miles 10+ km)
Ceiling: 5000 feet AGL
Clouds: scattered clouds at 3000 feet AGL
broken clouds at 5000 feet AGL
Weather: no significant weather forecast for this period
Text: FM090600 VRB03KT P6SM BKN010 BKN030
Forecast period: 0600 to 1200 UTC 09 December 2019
Forecast type: FROM: standard forecast or significant change
Winds: variable direction winds at 3 MPH (3 knots; 1.5 m/s)
Visibility: 6 or more miles 10+ km)
Ceiling: 1000 feet AGL
Clouds: broken clouds at 1000 feet AGL
broken clouds at 3000 feet AGL
Weather: no significant weather forecast for this period